createdAt,value
2023-04-16T00:00:43.837Z,1011.58
2023-04-16T00:01:43.876Z,1011.63
2023-04-16T00:02:43.929Z,1011.59
2023-04-16T00:03:44.118Z,1011.60
2023-04-16T00:04:43.857Z,1011.52
2023-04-16T00:05:43.776Z,1011.55
2023-04-16T00:06:43.753Z,1011.57
2023-04-16T00:07:43.764Z,1011.54
2023-04-16T00:08:43.827Z,1011.53
2023-04-16T00:09:43.761Z,1011.50
2023-04-16T00:10:43.727Z,1011.54
2023-04-16T00:11:43.717Z,1011.51
2023-04-16T00:12:43.692Z,1011.53
2023-04-16T00:13:43.691Z,1011.56
2023-04-16T00:14:43.672Z,1011.54
2023-04-16T00:15:43.689Z,1011.53
2023-04-16T00:16:43.692Z,1011.61
2023-04-16T00:17:43.678Z,1011.61
2023-04-16T00:18:43.626Z,1011.62
2023-04-16T00:19:43.616Z,1011.58
2023-04-16T00:20:43.637Z,1011.62
2023-04-16T00:21:43.599Z,1011.67
2023-04-16T00:22:43.578Z,1011.65
2023-04-16T00:23:43.577Z,1011.68
2023-04-16T00:24:43.557Z,1011.71
2023-04-16T00:25:43.560Z,1011.70
2023-04-16T00:26:43.753Z,1011.68
2023-04-16T00:27:43.529Z,1011.68
2023-04-16T00:28:43.512Z,1011.73
2023-04-16T00:29:43.518Z,1011.71
2023-04-16T00:30:43.512Z,1011.71
2023-04-16T00:31:43.487Z,1011.69
2023-04-16T00:32:43.524Z,1011.69
2023-04-16T00:33:43.460Z,1011.67
2023-04-16T00:34:43.442Z,1011.66
2023-04-16T00:35:43.439Z,1011.64
2023-04-16T00:36:43.455Z,1011.64
2023-04-16T00:37:43.441Z,1011.64
2023-04-16T00:38:43.408Z,1011.61
2023-04-16T00:39:43.392Z,1011.65
2023-04-16T00:40:43.373Z,1011.64
2023-04-16T00:41:43.380Z,1011.67
2023-04-16T00:42:43.376Z,1011.64
2023-04-16T00:43:43.362Z,1011.66
2023-04-16T00:44:43.337Z,1011.67
2023-04-16T00:45:43.325Z,1011.68
2023-04-16T00:46:43.351Z,1011.69
2023-04-16T00:47:43.315Z,1011.67
2023-04-16T00:48:43.306Z,1011.67
2023-04-16T00:49:43.280Z,1011.60
2023-04-16T00:50:43.272Z,1011.63
2023-04-16T00:51:43.257Z,1011.60
2023-04-16T00:52:43.248Z,1011.61
2023-04-16T00:53:43.271Z,1011.60
2023-04-16T00:54:43.220Z,1011.61
2023-04-16T00:55:43.212Z,1011.69
2023-04-16T00:56:43.204Z,1011.72
2023-04-16T00:57:43.197Z,1011.78
2023-04-16T00:58:43.208Z,1011.82
2023-04-16T00:59:43.200Z,1011.84
2023-04-16T01:00:43.158Z,1011.86
2023-04-16T01:01:43.158Z,1011.87
2023-04-16T01:02:43.258Z,1011.87
2023-04-16T01:03:43.392Z,1011.89
2023-04-16T01:04:43.138Z,1011.88
2023-04-16T01:05:43.107Z,1011.85
2023-04-16T01:06:43.091Z,1011.87
2023-04-16T01:07:43.088Z,1011.91
2023-04-16T01:08:43.077Z,1011.93
2023-04-16T01:09:43.064Z,1011.91
2023-04-16T01:10:43.076Z,1011.97
2023-04-16T01:11:43.040Z,1011.89
2023-04-16T01:12:43.019Z,1011.95
2023-04-16T01:13:43.023Z,1011.98
2023-04-16T01:14:43.008Z,1011.98
2023-04-16T01:15:43.039Z,1012.00
2023-04-16T01:16:42.997Z,1012.02
2023-04-16T01:17:43.017Z,1012.02
2023-04-16T01:18:42.963Z,1012.01
2023-04-16T01:19:42.957Z,1012.04
2023-04-16T01:20:42.933Z,1012.02
2023-04-16T01:21:42.948Z,1012.02
2023-04-16T01:22:42.918Z,1012.01
2023-04-16T01:23:47.941Z,1012.02
2023-04-16T01:24:42.891Z,1012.00
2023-04-16T01:25:42.879Z,1011.99
2023-04-16T01:26:42.889Z,1011.98
2023-04-16T01:27:42.860Z,1011.99
2023-04-16T01:28:42.850Z,1011.98
2023-04-16T01:29:42.839Z,1012.00
2023-04-16T01:30:42.834Z,1011.97
2023-04-16T01:31:42.902Z,1012.04
2023-04-16T01:32:42.834Z,1011.97
2023-04-16T01:33:42.800Z,1011.99
2023-04-16T01:34:42.782Z,1011.99
2023-04-16T01:35:42.772Z,1012.00
2023-04-16T01:36:42.777Z,1012.02
2023-04-16T01:37:42.762Z,1012.08
2023-04-16T01:38:42.749Z,1012.07
2023-04-16T01:39:42.730Z,1012.05
2023-04-16T01:40:42.713Z,1012.08
2023-04-16T01:41:42.815Z,1012.08
2023-04-16T01:42:42.692Z,1012.04
2023-04-16T01:43:42.695Z,1012.09
2023-04-16T01:44:42.676Z,1012.07
2023-04-16T01:45:42.709Z,1012.12
2023-04-16T01:46:42.700Z,1012.05
2023-04-16T01:47:42.678Z,1012.08
2023-04-16T01:48:42.642Z,1012.03
2023-04-16T01:49:42.623Z,1012.07
2023-04-16T01:50:42.609Z,1012.08
2023-04-16T01:51:42.617Z,1012.07
2023-04-16T01:52:42.591Z,1012.07
2023-04-16T01:53:42.569Z,1012.06
2023-04-16T01:54:42.565Z,1012.09
2023-04-16T01:55:42.559Z,1012.08
2023-04-16T01:56:42.559Z,1012.04
2023-04-16T01:57:42.542Z,1012.07
2023-04-16T01:58:42.519Z,1012.07
2023-04-16T01:59:42.506Z,1012.08
2023-04-16T02:00:42.533Z,1012.07
2023-04-16T02:01:42.551Z,1012.03
2023-04-16T02:02:42.601Z,1012.07
2023-04-16T02:03:42.618Z,1011.99
2023-04-16T02:04:42.448Z,1012.01
2023-04-16T02:05:42.444Z,1012.01
2023-04-16T02:06:42.442Z,1012.01
2023-04-16T02:07:42.419Z,1012.02
2023-04-16T02:08:42.404Z,1012.04
2023-04-16T02:09:42.394Z,1012.05
2023-04-16T02:10:42.393Z,1012.02
2023-04-16T02:11:42.400Z,1012.00
2023-04-16T02:12:42.434Z,1012.02
2023-04-16T02:13:42.350Z,1012.02
2023-04-16T02:14:42.336Z,1012.01
2023-04-16T02:15:42.322Z,1012.05
2023-04-16T02:16:42.389Z,1012.04
2023-04-16T02:17:42.334Z,1012.04
2023-04-16T02:18:42.286Z,1012.02
2023-04-16T02:19:42.272Z,1012.04
2023-04-16T02:20:42.262Z,1012.01
2023-04-16T02:21:42.274Z,1012.00
2023-04-16T02:22:42.243Z,1012.02
2023-04-16T02:23:42.237Z,1012.03
2023-04-16T02:24:42.227Z,1012.04
2023-04-16T02:25:42.210Z,1011.99
2023-04-16T02:26:42.223Z,1012.02
2023-04-16T02:27:42.192Z,1012.07
2023-04-16T02:28:42.179Z,1012.03
2023-04-16T02:29:42.165Z,1012.03
2023-04-16T02:30:42.161Z,1012.02
2023-04-16T02:31:42.185Z,1011.96
2023-04-16T02:32:42.181Z,1011.98
2023-04-16T02:33:42.120Z,1012.01
2023-04-16T02:34:42.110Z,1012.01
2023-04-16T02:35:42.100Z,1012.03
2023-04-16T02:36:42.111Z,1011.98
2023-04-16T02:37:42.076Z,1011.99
2023-04-16T02:38:42.066Z,1011.97
2023-04-16T02:39:42.046Z,1011.97
2023-04-16T02:40:42.056Z,1011.98
2023-04-16T02:41:42.078Z,1011.96
2023-04-16T02:42:42.137Z,1011.94
2023-04-16T02:43:42.006Z,1011.98
2023-04-16T02:44:42.007Z,1011.95
2023-04-16T02:45:42.015Z,1011.97
2023-04-16T02:46:41.995Z,1011.90
2023-04-16T02:47:41.994Z,1011.91
2023-04-16T02:48:41.953Z,1011.92
2023-04-16T02:49:41.938Z,1011.92
2023-04-16T02:50:41.933Z,1011.90
2023-04-16T02:51:41.933Z,1011.92
2023-04-16T02:52:41.908Z,1011.92
2023-04-16T02:53:41.896Z,1011.93
2023-04-16T02:54:41.887Z,1011.96
2023-04-16T02:55:41.870Z,1011.97
2023-04-16T02:56:41.883Z,1011.96
2023-04-16T02:57:41.848Z,1011.95
2023-04-16T02:58:41.834Z,1011.98
2023-04-16T02:59:41.833Z,1012.02
2023-04-16T03:00:41.817Z,1012.01
2023-04-16T03:01:41.883Z,1012.01
2023-04-16T03:02:41.869Z,1012.01
2023-04-16T03:03:41.781Z,1012.01
2023-04-16T03:04:41.943Z,1012.02
2023-04-16T03:05:41.755Z,1012.02
2023-04-16T03:06:41.769Z,1012.02
2023-04-16T03:07:41.738Z,1011.98
2023-04-16T03:08:41.726Z,1011.99
2023-04-16T03:09:41.729Z,1012.04
2023-04-16T03:10:41.729Z,1011.99
2023-04-16T03:11:41.712Z,1012.00
2023-04-16T03:12:41.690Z,1012.02
2023-04-16T03:13:41.673Z,1011.98
2023-04-16T03:14:41.674Z,1012.01
2023-04-16T03:15:41.685Z,1011.96
2023-04-16T03:16:41.667Z,1011.98
2023-04-16T03:17:41.660Z,1011.98
2023-04-16T03:18:41.618Z,1012.03
2023-04-16T03:19:41.623Z,1012.06
2023-04-16T03:20:41.592Z,1012.05
2023-04-16T03:21:41.619Z,1012.07
2023-04-16T03:22:41.586Z,1012.03
2023-04-16T03:23:41.558Z,1012.06
2023-04-16T03:24:41.562Z,1012.08
2023-04-16T03:25:41.541Z,1012.08
2023-04-16T03:26:41.557Z,1012.10
2023-04-16T03:27:41.521Z,1012.12
2023-04-16T03:28:41.504Z,1012.11
2023-04-16T03:29:41.500Z,1012.12
2023-04-16T03:30:41.485Z,1012.11
2023-04-16T03:31:41.568Z,1012.13
2023-04-16T03:32:41.596Z,1012.18
2023-04-16T03:33:41.484Z,1012.14
2023-04-16T03:34:41.465Z,1012.19
2023-04-16T03:35:41.429Z,1012.18
2023-04-16T03:36:41.440Z,1012.20
2023-04-16T03:37:41.404Z,1012.27
2023-04-16T03:38:41.399Z,1012.22
2023-04-16T03:39:41.381Z,1012.24
2023-04-16T03:40:41.378Z,1012.29
2023-04-16T03:41:41.375Z,1012.23
2023-04-16T03:42:41.367Z,1012.30
2023-04-16T03:43:41.359Z,1012.28
2023-04-16T03:44:41.326Z,1012.26
2023-04-16T03:45:41.318Z,1012.30
2023-04-16T03:46:41.354Z,1012.31
2023-04-16T03:47:41.325Z,1012.30
2023-04-16T03:48:41.282Z,1012.29
2023-04-16T03:49:41.263Z,1012.34
2023-04-16T03:50:41.267Z,1012.30
2023-04-16T03:51:41.276Z,1012.32
2023-04-16T03:52:41.248Z,1012.32
2023-04-16T03:53:41.252Z,1012.39
2023-04-16T03:54:41.221Z,1012.34
2023-04-16T03:55:41.222Z,1012.32
2023-04-16T03:56:41.215Z,1012.37
2023-04-16T03:57:41.180Z,1012.31
2023-04-16T03:58:41.206Z,1012.37
2023-04-16T03:59:41.154Z,1012.34
2023-04-16T04:00:41.178Z,1012.32
2023-04-16T04:01:41.192Z,1012.34
2023-04-16T04:02:41.292Z,1012.33
2023-04-16T04:03:41.338Z,1012.33
2023-04-16T04:04:41.293Z,1012.27
2023-04-16T04:05:41.120Z,1012.27
2023-04-16T04:06:41.108Z,1012.30
2023-04-16T04:07:41.116Z,1012.30
2023-04-16T04:08:41.069Z,1012.26
2023-04-16T04:09:41.052Z,1012.26
2023-04-16T04:10:41.049Z,1012.27
2023-04-16T04:11:41.049Z,1012.31
2023-04-16T04:12:41.028Z,1012.31
2023-04-16T04:13:41.022Z,1012.30
2023-04-16T04:14:40.992Z,1012.30
2023-04-16T04:15:40.996Z,1012.35
2023-04-16T04:16:41.194Z,1012.33
2023-04-16T04:17:41.050Z,1012.35
2023-04-16T04:18:42.183Z,1012.31
2023-04-16T04:19:47.229Z,1012.36
2023-04-16T04:20:40.951Z,1012.44
2023-04-16T04:21:40.966Z,1012.37
2023-04-16T04:22:40.921Z,1012.40
2023-04-16T04:23:40.900Z,1012.42
2023-04-16T04:24:40.884Z,1012.37
2023-04-16T04:25:40.860Z,1012.44
2023-04-16T04:26:40.908Z,1012.40
2023-04-16T04:27:40.863Z,1012.42
2023-04-16T04:28:40.838Z,1012.49
2023-04-16T04:29:40.825Z,1012.49
2023-04-16T04:30:40.818Z,1012.47
2023-04-16T04:31:40.890Z,1012.48
2023-04-16T04:32:40.801Z,1012.55
2023-04-16T04:33:41.311Z,1012.53
2023-04-16T04:34:40.792Z,1012.54
2023-04-16T04:35:40.754Z,1012.53
2023-04-16T04:36:40.774Z,1012.56
2023-04-16T04:37:40.748Z,1012.55
2023-04-16T04:38:40.726Z,1012.60
2023-04-16T04:39:40.712Z,1012.58
2023-04-16T04:40:40.693Z,1012.60
2023-04-16T04:41:40.712Z,1012.62
2023-04-16T04:42:40.687Z,1012.57
2023-04-16T04:43:40.680Z,1012.60
2023-04-16T04:44:40.655Z,1012.57
2023-04-16T04:45:40.652Z,1012.56
2023-04-16T04:46:40.680Z,1012.63
2023-04-16T04:47:40.702Z,1012.62
2023-04-16T04:48:40.609Z,1012.64
2023-04-16T04:49:40.594Z,1012.67
2023-04-16T04:50:40.589Z,1012.65
2023-04-16T04:51:40.596Z,1012.69
2023-04-16T04:52:40.583Z,1012.65
2023-04-16T04:53:40.545Z,1012.64
2023-04-16T04:54:40.552Z,1012.67
2023-04-16T04:55:40.527Z,1012.67
2023-04-16T04:56:40.547Z,1012.68
2023-04-16T04:57:40.507Z,1012.71
2023-04-16T04:58:40.503Z,1012.68
2023-04-16T04:59:40.486Z,1012.70
2023-04-16T05:00:40.482Z,1012.68
2023-04-16T05:01:40.515Z,1012.75
2023-04-16T05:02:40.561Z,1012.72
2023-04-16T05:03:40.569Z,1012.69
2023-04-16T05:04:40.467Z,1012.73
2023-04-16T05:05:40.420Z,1012.75
2023-04-16T05:06:40.432Z,1012.73
2023-04-16T05:07:40.400Z,1012.79
2023-04-16T05:08:40.389Z,1012.79
2023-04-16T05:09:40.371Z,1012.82
2023-04-16T05:10:40.368Z,1012.78
2023-04-16T05:11:40.377Z,1012.76
2023-04-16T05:12:40.345Z,1012.78
2023-04-16T05:13:40.380Z,1012.81
2023-04-16T05:14:40.320Z,1012.87
2023-04-16T05:15:40.311Z,1012.85
2023-04-16T05:16:40.355Z,1012.86
2023-04-16T05:17:40.301Z,1012.84
2023-04-16T05:18:40.287Z,1012.89
2023-04-16T05:19:40.275Z,1012.97
2023-04-16T05:20:40.260Z,1012.93
2023-04-16T05:21:40.280Z,1012.92
2023-04-16T05:22:40.233Z,1013.00
2023-04-16T05:23:40.249Z,1012.98
2023-04-16T05:24:40.215Z,1013.00
2023-04-16T05:25:40.196Z,1013.01
2023-04-16T05:26:40.187Z,1013.02
2023-04-16T05:27:40.170Z,1013.01
2023-04-16T05:28:40.166Z,1013.04
2023-04-16T05:29:40.196Z,1013.09
2023-04-16T05:30:40.186Z,1013.03
2023-04-16T05:31:40.127Z,1013.06
2023-04-16T05:32:40.162Z,1013.09
2023-04-16T05:33:40.105Z,1013.09
2023-04-16T05:34:40.103Z,1013.08
2023-04-16T05:35:40.126Z,1013.09
2023-04-16T05:36:40.095Z,1013.08
2023-04-16T05:37:40.062Z,1013.10
2023-04-16T05:38:40.056Z,1013.05
2023-04-16T05:39:40.070Z,1013.11
2023-04-16T05:40:40.038Z,1013.11
2023-04-16T05:41:40.046Z,1013.10
2023-04-16T05:42:40.010Z,1013.15
2023-04-16T05:43:40.017Z,1013.19
2023-04-16T05:44:39.984Z,1013.18
2023-04-16T05:45:40.001Z,1013.20
2023-04-16T05:46:40.014Z,1013.12
2023-04-16T05:47:40.008Z,1013.14
2023-04-16T05:48:39.955Z,1013.17
2023-04-16T05:49:39.932Z,1013.21
2023-04-16T05:50:39.921Z,1013.21
2023-04-16T05:51:39.922Z,1013.22
2023-04-16T05:52:39.898Z,1013.19
2023-04-16T05:53:39.885Z,1013.18
2023-04-16T05:54:39.892Z,1013.21
2023-04-16T05:55:39.863Z,1013.25
2023-04-16T05:56:39.903Z,1013.27
2023-04-16T05:57:39.840Z,1013.29
2023-04-16T05:58:39.830Z,1013.26
2023-04-16T05:59:39.843Z,1013.28
2023-04-16T06:00:39.802Z,1013.33
2023-04-16T06:01:39.895Z,1013.37
2023-04-16T06:02:39.901Z,1013.31
2023-04-16T06:03:39.846Z,1013.38
2023-04-16T06:04:39.781Z,1013.40
2023-04-16T06:05:39.802Z,1013.35
2023-04-16T06:06:39.793Z,1013.38
2023-04-16T06:07:39.719Z,1013.40
2023-04-16T06:08:39.714Z,1013.39
2023-04-16T06:09:39.701Z,1013.43
2023-04-16T06:10:39.690Z,1013.43
2023-04-16T06:11:39.743Z,1013.40
2023-04-16T06:12:39.709Z,1013.37
2023-04-16T06:13:39.684Z,1013.40
2023-04-16T06:14:39.653Z,1013.43
2023-04-16T06:15:39.691Z,1013.42
2023-04-16T06:16:39.655Z,1013.40
2023-04-16T06:17:39.655Z,1013.42
2023-04-16T06:18:39.641Z,1013.40
2023-04-16T06:19:39.591Z,1013.46
2023-04-16T06:20:39.588Z,1013.47
2023-04-16T06:21:39.586Z,1013.45
2023-04-16T06:22:39.573Z,1013.49
2023-04-16T06:23:39.543Z,1013.44
2023-04-16T06:24:39.550Z,1013.45
2023-04-16T06:25:39.578Z,1013.46
2023-04-16T06:26:39.563Z,1013.49
2023-04-16T06:27:39.500Z,1013.52
2023-04-16T06:28:39.542Z,1013.49
2023-04-16T06:29:41.376Z,1013.49
2023-04-16T06:30:39.487Z,1013.51
2023-04-16T06:31:39.504Z,1013.53
2023-04-16T06:32:39.489Z,1013.55
2023-04-16T06:33:39.452Z,1013.56
2023-04-16T06:34:39.439Z,1013.57
2023-04-16T06:35:39.438Z,1013.59
2023-04-16T06:36:39.448Z,1013.62
2023-04-16T06:37:39.405Z,1013.57
2023-04-16T06:38:39.386Z,1013.62
2023-04-16T06:39:39.368Z,1013.63
2023-04-16T06:40:39.380Z,1013.65
2023-04-16T06:41:39.359Z,1013.65
2023-04-16T06:42:39.365Z,1013.64
2023-04-16T06:43:39.328Z,1013.66
2023-04-16T06:44:39.332Z,1013.68
2023-04-16T06:45:39.307Z,1013.66
2023-04-16T06:46:39.373Z,1013.67
2023-04-16T06:47:39.362Z,1013.66
2023-04-16T06:48:39.264Z,1013.66
2023-04-16T06:49:39.275Z,1013.72
2023-04-16T06:50:39.247Z,1013.72
2023-04-16T06:51:39.261Z,1013.72
2023-04-16T06:52:39.220Z,1013.72
2023-04-16T06:53:39.227Z,1013.74
2023-04-16T06:54:39.193Z,1013.74
2023-04-16T06:55:39.216Z,1013.71
2023-04-16T06:56:39.197Z,1013.69
2023-04-16T06:57:39.189Z,1013.77
2023-04-16T06:58:39.149Z,1013.74
2023-04-16T06:59:39.165Z,1013.78
2023-04-16T07:00:39.160Z,1013.79
2023-04-16T07:01:39.156Z,1013.79
2023-04-16T07:02:39.244Z,1013.81
2023-04-16T07:03:39.322Z,1013.82
2023-04-16T07:04:39.089Z,1013.85
2023-04-16T07:05:39.080Z,1013.83
2023-04-16T07:06:39.095Z,1013.85
2023-04-16T07:07:39.066Z,1013.90
2023-04-16T07:08:39.039Z,1013.92
2023-04-16T07:09:39.036Z,1013.95
2023-04-16T07:10:39.037Z,1013.95
2023-04-16T07:11:39.033Z,1013.97
2023-04-16T07:12:39.020Z,1013.96
2023-04-16T07:13:38.995Z,1013.93
2023-04-16T07:14:38.969Z,1013.98
2023-04-16T07:15:38.974Z,1013.92
2023-04-16T07:16:38.996Z,1013.91
2023-04-16T07:17:39.016Z,1013.91
2023-04-16T07:18:38.949Z,1013.91
2023-04-16T07:19:38.942Z,1013.95
2023-04-16T07:20:38.905Z,1013.94
2023-04-16T07:21:38.937Z,1013.97
2023-04-16T07:22:38.895Z,1013.96
2023-04-16T07:23:38.881Z,1013.96
2023-04-16T07:24:38.868Z,1013.97
2023-04-16T07:25:38.857Z,1013.96
2023-04-16T07:26:38.886Z,1013.97
2023-04-16T07:27:38.828Z,1014.00
2023-04-16T07:28:38.845Z,1014.03
2023-04-16T07:29:38.814Z,1013.96
2023-04-16T07:30:38.809Z,1014.00
2023-04-16T07:31:38.913Z,1013.97
2023-04-16T07:32:38.841Z,1014.03
2023-04-16T07:33:38.768Z,1014.00
2023-04-16T07:34:38.753Z,1013.99
2023-04-16T07:35:38.759Z,1014.02
2023-04-16T07:36:38.751Z,1014.04
2023-04-16T07:37:38.739Z,1014.07
2023-04-16T07:38:38.718Z,1014.03
2023-04-16T07:39:38.712Z,1014.03
2023-04-16T07:40:38.683Z,1014.08
2023-04-16T07:41:38.703Z,1014.11
2023-04-16T07:42:38.668Z,1014.06
2023-04-16T07:43:38.657Z,1014.09
2023-04-16T07:44:38.646Z,1014.06
2023-04-16T07:45:38.684Z,1014.07
2023-04-16T07:46:46.824Z,1014.09
2023-04-16T07:47:38.640Z,1014.04
2023-04-16T07:48:38.598Z,1014.01
2023-04-16T07:49:38.598Z,1014.10
2023-04-16T07:50:38.576Z,1014.13
2023-04-16T07:51:38.588Z,1014.09
2023-04-16T07:52:38.557Z,1014.09
2023-04-16T07:53:38.558Z,1014.11
2023-04-16T07:54:38.536Z,1014.13
2023-04-16T07:55:38.514Z,1014.14
2023-04-16T07:56:38.550Z,1014.17
2023-04-16T07:57:38.548Z,1014.16
2023-04-16T07:58:38.483Z,1014.20
2023-04-16T07:59:38.477Z,1014.21
2023-04-16T08:00:38.482Z,1014.21
2023-04-16T08:01:38.472Z,1014.23
2023-04-16T08:02:38.673Z,1014.21
2023-04-16T08:03:38.632Z,1014.21
2023-04-16T08:04:38.739Z,1014.21
2023-04-16T08:05:38.412Z,1014.18
2023-04-16T08:06:38.426Z,1014.20
2023-04-16T08:07:38.391Z,1014.22
2023-04-16T08:08:38.381Z,1014.28
2023-04-16T08:09:38.397Z,1014.32
2023-04-16T08:10:38.344Z,1014.31
2023-04-16T08:11:38.364Z,1014.31
2023-04-16T08:12:38.341Z,1014.27
2023-04-16T08:13:38.327Z,1014.28
2023-04-16T08:14:38.307Z,1014.30
2023-04-16T08:15:38.313Z,1014.35
2023-04-16T08:16:38.300Z,1014.33
2023-04-16T08:17:38.314Z,1014.39
2023-04-16T08:18:38.272Z,1014.40
2023-04-16T08:19:38.260Z,1014.45
2023-04-16T08:20:38.261Z,1014.40
2023-04-16T08:21:38.285Z,1014.43
2023-04-16T08:22:38.218Z,1014.41
2023-04-16T08:23:38.206Z,1014.44
2023-04-16T08:24:38.220Z,1014.48
2023-04-16T08:25:38.204Z,1014.47
2023-04-16T08:26:38.171Z,1014.48
2023-04-16T08:27:38.189Z,1014.50
2023-04-16T08:28:38.149Z,1014.50
2023-04-16T08:29:38.157Z,1014.50
2023-04-16T08:30:38.136Z,1014.50
2023-04-16T08:31:38.143Z,1014.51
2023-04-16T08:32:38.167Z,1014.52
2023-04-16T08:33:38.121Z,1014.58
2023-04-16T08:34:38.131Z,1014.54
2023-04-16T08:35:38.083Z,1014.57
2023-04-16T08:36:38.058Z,1014.61
2023-04-16T08:37:38.060Z,1014.60
2023-04-16T08:38:38.038Z,1014.62
2023-04-16T08:39:38.063Z,1014.58
2023-04-16T08:40:38.015Z,1014.63
2023-04-16T08:41:38.013Z,1014.62
2023-04-16T08:42:37.999Z,1014.67
2023-04-16T08:43:37.999Z,1014.66
2023-04-16T08:44:37.971Z,1014.71
2023-04-16T08:45:37.984Z,1014.68
2023-04-16T08:46:38.120Z,1014.71
2023-04-16T08:47:38.004Z,1014.75
2023-04-16T08:48:37.934Z,1014.72
2023-04-16T08:49:37.921Z,1014.71
2023-04-16T08:50:37.910Z,1014.71
2023-04-16T08:51:37.917Z,1014.75
2023-04-16T08:52:37.890Z,1014.76
2023-04-16T08:53:37.921Z,1014.79
2023-04-16T08:54:37.865Z,1014.80
2023-04-16T08:55:37.861Z,1014.82
2023-04-16T08:56:37.861Z,1014.80
2023-04-16T08:57:37.836Z,1014.78
2023-04-16T08:58:37.815Z,1014.73
2023-04-16T08:59:37.831Z,1014.71
2023-04-16T09:00:37.797Z,1014.79
2023-04-16T09:01:37.848Z,1014.82
2023-04-16T09:02:38.207Z,1014.80
2023-04-16T09:03:37.915Z,1014.76
2023-04-16T09:04:37.841Z,1014.76
2023-04-16T09:05:37.754Z,1014.76
2023-04-16T09:06:37.757Z,1014.76
2023-04-16T09:07:37.721Z,1014.77
2023-04-16T09:08:37.699Z,1014.78
2023-04-16T09:09:37.695Z,1014.77
2023-04-16T09:10:37.681Z,1014.78
2023-04-16T09:11:37.690Z,1014.77
2023-04-16T09:12:37.661Z,1014.82
2023-04-16T09:13:37.653Z,1014.80
2023-04-16T09:14:37.647Z,1014.81
2023-04-16T09:15:37.650Z,1014.83
2023-04-16T09:16:37.717Z,1014.81
2023-04-16T09:17:37.617Z,1014.83
2023-04-16T09:18:37.598Z,1014.87
2023-04-16T09:19:37.600Z,1014.79
2023-04-16T09:20:37.567Z,1014.85
2023-04-16T09:21:37.580Z,1014.84
2023-04-16T09:22:37.547Z,1014.84
2023-04-16T09:23:37.553Z,1014.83
2023-04-16T09:24:37.521Z,1014.84
2023-04-16T09:25:37.516Z,1014.81
2023-04-16T09:26:37.535Z,1014.82
2023-04-16T09:27:37.494Z,1014.85
2023-04-16T09:28:37.521Z,1014.87
2023-04-16T09:29:37.497Z,1014.93
2023-04-16T09:30:37.456Z,1014.90
2023-04-16T09:31:37.498Z,1014.90
2023-04-16T09:32:37.505Z,1014.95
2023-04-16T09:33:37.437Z,1014.93
2023-04-16T09:34:37.420Z,1014.92
2023-04-16T09:35:37.436Z,1014.94
2023-04-16T09:36:37.423Z,1014.96
2023-04-16T09:37:37.406Z,1014.92
2023-04-16T09:38:37.370Z,1014.96
2023-04-16T09:39:37.362Z,1014.99
2023-04-16T09:40:37.356Z,1014.98
2023-04-16T09:41:37.362Z,1014.97
2023-04-16T09:42:37.448Z,1014.97
2023-04-16T09:43:37.323Z,1014.96
2023-04-16T09:44:37.317Z,1014.94
2023-04-16T09:45:37.314Z,1014.96
2023-04-16T09:46:37.300Z,1014.95
2023-04-16T09:47:37.324Z,1014.99
2023-04-16T09:48:37.273Z,1015.00
2023-04-16T09:49:37.263Z,1015.06
2023-04-16T09:50:37.240Z,1015.04
2023-04-16T09:51:37.260Z,1015.03
2023-04-16T09:52:37.212Z,1015.00
2023-04-16T09:53:37.207Z,1015.00
2023-04-16T09:54:37.187Z,1015.00
2023-04-16T09:55:37.184Z,1014.93
2023-04-16T09:56:37.198Z,1014.95
2023-04-16T09:57:37.164Z,1015.03
2023-04-16T09:58:37.160Z,1014.95
2023-04-16T09:59:37.149Z,1014.95
2023-04-16T10:00:43.288Z,1014.92
2023-04-16T10:01:37.168Z,1014.95
2023-04-16T10:02:37.137Z,1014.96
2023-04-16T10:03:37.400Z,1015.05
2023-04-16T10:04:37.143Z,1014.94
2023-04-16T10:05:37.082Z,1014.91
2023-04-16T10:06:37.093Z,1014.95
2023-04-16T10:07:37.057Z,1014.96
2023-04-16T10:08:37.045Z,1014.97
2023-04-16T10:09:37.040Z,1014.97
2023-04-16T10:10:37.019Z,1014.98
2023-04-16T10:11:37.035Z,1015.03
2023-04-16T10:12:36.993Z,1015.01
2023-04-16T10:13:36.993Z,1015.00
2023-04-16T10:14:36.984Z,1014.99
2023-04-16T10:15:36.984Z,1014.98
2023-04-16T10:16:37.014Z,1015.02
2023-04-16T10:17:37.021Z,1015.07
2023-04-16T10:18:36.934Z,1015.05
2023-04-16T10:19:36.929Z,1015.05
2023-04-16T10:20:36.905Z,1015.11
2023-04-16T10:21:36.924Z,1015.06
2023-04-16T10:22:36.899Z,1015.08
2023-04-16T10:23:36.885Z,1015.07
2023-04-16T10:24:36.868Z,1015.10
2023-04-16T10:25:36.861Z,1015.06
2023-04-16T10:26:36.884Z,1015.09
2023-04-16T10:27:36.847Z,1015.07
2023-04-16T10:28:36.840Z,1015.09
2023-04-16T10:29:36.813Z,1015.09
2023-04-16T10:30:36.821Z,1015.09
2023-04-16T10:31:36.817Z,1015.06
2023-04-16T10:32:36.879Z,1015.06
2023-04-16T10:33:36.767Z,1015.10
2023-04-16T10:34:36.761Z,1015.08
2023-04-16T10:35:36.746Z,1015.08
2023-04-16T10:36:36.752Z,1015.09
2023-04-16T10:37:36.732Z,1015.06
2023-04-16T10:38:36.712Z,1015.06
2023-04-16T10:39:36.705Z,1015.13
2023-04-16T10:40:36.692Z,1015.06
2023-04-16T10:41:36.703Z,1015.10
2023-04-16T10:42:36.668Z,1015.09
2023-04-16T10:43:36.669Z,1015.10
2023-04-16T10:44:36.647Z,1015.03
2023-04-16T10:45:36.645Z,1015.07
2023-04-16T10:46:36.686Z,1015.09
2023-04-16T10:47:36.645Z,1015.08
2023-04-16T10:48:46.742Z,1015.04
2023-04-16T10:49:36.602Z,1015.07
2023-04-16T10:50:36.585Z,1015.10
2023-04-16T10:51:36.599Z,1015.08
2023-04-16T10:52:36.560Z,1015.06
2023-04-16T10:53:36.551Z,1015.04
2023-04-16T10:54:36.555Z,1015.03
2023-04-16T10:55:36.533Z,1014.98
2023-04-16T10:56:36.540Z,1015.05
2023-04-16T10:57:36.509Z,1015.02
2023-04-16T10:58:36.506Z,1015.03
2023-04-16T10:59:36.481Z,1015.02
2023-04-16T11:00:36.478Z,1015.05
2023-04-16T11:01:36.570Z,1015.08
2023-04-16T11:02:36.617Z,1015.03
2023-04-16T11:03:36.561Z,1014.99
2023-04-16T11:04:36.512Z,1015.05
2023-04-16T11:05:36.426Z,1015.05
2023-04-16T11:06:36.436Z,1015.02
2023-04-16T11:07:36.394Z,1014.96
2023-04-16T11:08:44.308Z,1015.01
2023-04-16T11:09:36.375Z,1014.99
2023-04-16T11:10:36.380Z,1014.96
2023-04-16T11:11:36.369Z,1014.97
2023-04-16T11:12:36.336Z,1014.96
2023-04-16T11:13:36.327Z,1014.98
2023-04-16T11:14:36.315Z,1014.96
2023-04-16T11:15:36.299Z,1015.00
2023-04-16T11:16:36.319Z,1014.95
2023-04-16T11:17:36.307Z,1014.93
2023-04-16T11:18:36.284Z,1014.95
2023-04-16T11:19:36.258Z,1014.98
2023-04-16T11:20:36.247Z,1014.90
2023-04-16T11:21:36.258Z,1015.01
2023-04-16T11:22:36.239Z,1015.00
2023-04-16T11:23:36.221Z,1014.95
2023-04-16T11:24:36.209Z,1014.98
2023-04-16T11:25:36.192Z,1014.97
2023-04-16T11:26:36.207Z,1014.95
2023-04-16T11:27:36.164Z,1014.95
2023-04-16T11:28:36.159Z,1015.04
2023-04-16T11:29:36.138Z,1015.03
2023-04-16T11:30:36.144Z,1015.01
2023-04-16T11:31:36.213Z,1014.97
2023-04-16T11:32:36.156Z,1014.98
2023-04-16T11:33:36.097Z,1014.98
2023-04-16T11:34:36.086Z,1015.02
2023-04-16T11:35:36.100Z,1015.04
2023-04-16T11:36:36.090Z,1015.04
2023-04-16T11:37:36.061Z,1015.03
2023-04-16T11:38:36.058Z,1014.99
2023-04-16T11:39:36.032Z,1015.04
2023-04-16T11:40:36.158Z,1015.03
2023-04-16T11:41:36.015Z,1015.07
2023-04-16T11:42:36.053Z,1015.04
2023-04-16T11:43:35.981Z,1015.09
2023-04-16T11:44:35.981Z,1015.06
2023-04-16T11:45:35.957Z,1015.08
2023-04-16T11:46:35.987Z,1015.08
2023-04-16T11:47:36.008Z,1015.13
2023-04-16T11:48:35.931Z,1015.10
2023-04-16T11:49:35.931Z,1015.14
2023-04-16T11:50:35.906Z,1015.11
2023-04-16T11:51:35.917Z,1015.12
2023-04-16T11:52:35.899Z,1015.12
2023-04-16T11:53:35.868Z,1015.11
2023-04-16T11:54:35.868Z,1015.11
2023-04-16T11:55:35.867Z,1015.12
2023-04-16T11:56:35.858Z,1015.09
2023-04-16T11:57:35.822Z,1015.16
2023-04-16T11:58:35.818Z,1015.14
2023-04-16T11:59:35.817Z,1015.16
2023-04-16T12:00:35.796Z,1015.14
2023-04-16T12:01:35.797Z,1015.15
2023-04-16T12:02:35.926Z,1015.17
2023-04-16T12:03:36.064Z,1015.13
2023-04-16T12:04:35.838Z,1015.14
2023-04-16T12:05:35.724Z,1015.19